Time;durP1;ratioP1;P1;durP2;ratioP2;P2;SDS_P1;SDS_P2;PMS_P1;PMS_P2;Temp;Humidity;BMP_temperature;BMP_pressure;BME280_temperature;BME280_humidity;BME280_pressure;Samples;Min_cycle;Max_cycle;Signal;HPM_P1;HPM_P2
2021/05/28 00:01:14;;;;;;;1.20;1.10;;;;;;;11.67;99.73;98216.56;5061185;28;20079;-89
2021/05/28 00:03:40;;;;;;;1.40;0.80;;;;;;;11.57;99.81;98213.13;5050342;28;20036;-86
2021/05/28 00:06:05;;;;;;;0.90;0.70;;;;;;;11.58;100.00;98212.03;5048043;28;21023;-86
2021/05/28 00:08:31;;;;;;;0.90;0.80;;;;;;;11.53;100.00;98214.81;5074307;28;20059;-78
2021/05/28 00:10:56;;;;;;;1.52;0.95;;;;;;;11.45;100.00;98208.09;5073609;28;20029;-87
2021/05/28 00:13:22;;;;;;;1.75;1.00;;;;;;;11.46;100.00;98217.13;5055933;28;20028;-82
2021/05/28 00:15:47;;;;;;;1.40;0.93;;;;;;;11.36;100.00;98209.03;5073753;28;20013;-83
2021/05/28 00:18:13;;;;;;;1.15;1.02;;;;;;;11.33;100.00;98202.22;5073569;28;20036;-82
2021/05/28 00:20:39;;;;;;;1.92;1.10;;;;;;;11.33;100.00;98204.97;5068810;28;20017;-85
2021/05/28 00:23:04;;;;;;;1.42;0.98;;;;;;;11.35;100.00;98205.47;5059995;28;20036;-82
2021/05/28 00:25:30;;;;;;;0.77;0.77;;;;;;;11.24;100.00;98199.31;5069670;28;20032;-85
2021/05/28 00:27:55;;;;;;;0.80;0.80;;;;;;;11.19;100.00;98201.31;5077809;28;20024;-86
2021/05/28 00:30:21;;;;;;;2.60;0.90;;;;;;;11.05;100.00;98197.66;5063628;28;20030;-87
2021/05/28 00:32:47;;;;;;;3.00;1.20;;;;;;;11.07;100.00;98211.88;5075760;28;20384;-80
2021/05/28 00:35:13;;;;;;;1.25;1.00;;;;;;;11.04;100.00;98221.47;5073539;28;20028;-77
2021/05/28 00:37:39;;;;;;;1.02;0.95;;;;;;;10.92;100.00;98217.53;5073907;28;20538;-83
2021/05/28 00:40:05;;;;;;;2.55;1.45;;;;;;;10.93;100.00;98219.16;5073488;28;20032;-84
2021/05/28 00:42:30;;;;;;;5.13;2.75;;;;;;;10.79;100.00;98215.47;5073066;28;20025;-80
2021/05/28 00:44:56;;;;;;;4.72;2.53;;;;;;;10.82;100.00;98234.03;5074131;28;20087;-83
2021/05/28 00:47:21;;;;;;;6.72;3.60;;;;;;;10.88;100.00;98238.34;5074222;28;20103;-86
2021/05/28 00:49:46;;;;;;;2.88;1.90;;;;;;;10.84;100.00;98220.91;5054828;28;21502;-84
2021/05/28 00:52:13;;;;;;;2.03;1.80;;;;;;;10.77;100.00;98228.63;5044582;28;20036;-83
2021/05/28 00:54:39;;;;;;;2.60;2.20;;;;;;;10.77;100.00;98225.91;5062797;28;20045;-84
2021/05/28 00:57:06;;;;;;;3.67;3.00;;;;;;;10.66;100.00;98214.22;5054585;28;20367;-86
2021/05/28 00:59:31;;;;;;;4.22;2.45;;;;;;;10.53;100.00;98214.91;5052629;28;20028;-87
2021/05/28 01:01:57;;;;;;;4.72;3.30;;;;;;;10.48;100.00;98217.69;5052564;28;20049;-84
2021/05/28 01:04:22;;;;;;;5.28;2.78;;;;;;;10.46;100.00;98219.91;5052716;28;20032;-84
2021/05/28 01:06:47;;;;;;;8.15;4.22;;;;;;;10.42;100.00;98227.88;5052698;28;20037;-86
2021/05/28 01:09:13;;;;;;;5.60;3.67;;;;;;;10.41;100.00;98223.50;5052575;28;20029;-83
2021/05/28 01:11:39;;;;;;;8.23;4.30;;;;;;;10.45;100.00;98221.00;5052093;28;20021;-83
2021/05/28 01:14:05;;;;;;;4.20;2.92;;;;;;;10.41;100.00;98223.50;5051645;28;20120;-80
2021/05/28 01:16:31;;;;;;;3.88;2.58;;;;;;;10.48;100.00;98232.19;5052162;28;20021;-82
2021/05/28 01:18:58;;;;;;;4.00;3.08;;;;;;;10.48;100.00;98234.94;5048329;28;20719;-84
2021/05/28 01:21:24;;;;;;;3.47;2.95;;;;;;;10.32;100.00;98236.16;5071395;28;20032;-79
2021/05/28 01:23:49;;;;;;;4.25;3.53;;;;;;;10.23;100.00;98235.16;5071130;28;20035;-79
2021/05/28 01:26:15;;;;;;;4.35;3.95;;;;;;;10.13;100.00;98229.72;5070613;28;20086;-87
2021/05/28 01:28:40;;;;;;;5.63;3.30;;;;;;;10.04;100.00;98234.19;5071654;28;20036;-80
2021/05/28 01:31:07;;;;;;;5.38;3.58;;;;;;;10.01;100.00;98235.56;5071309;28;20032;-80
2021/05/28 01:33:32;;;;;;;6.45;4.10;;;;;;;9.94;100.00;98229.59;5041641;28;20033;-82
2021/05/28 01:35:59;;;;;;;6.15;3.92;;;;;;;9.97;100.00;98220.00;5060315;28;20042;-82
2021/05/28 01:38:25;;;;;;;2.88;2.55;;;;;;;9.87;100.00;98222.81;5060999;28;20040;-82
2021/05/28 01:40:51;;;;;;;4.13;3.35;;;;;;;9.89;100.00;98216.00;5051464;28;20499;-80
2021/05/28 01:43:16;;;;;;;3.63;2.75;;;;;;;9.82;100.00;98218.22;5052170;28;20033;-84
2021/05/28 01:45:42;;;;;;;3.50;3.05;;;;;;;9.82;100.00;98220.13;5034603;28;20059;-81
2021/05/28 01:48:08;;;;;;;2.97;2.67;;;;;;;9.82;100.00;98211.94;5042195;28;20449;-85
2021/05/28 01:50:42;;;;;;;4.53;2.97;;;;;;;9.92;100.00;98231.00;5059584;28;20086;-80
2021/05/28 01:53:12;;;;;;;3.45;3.08;;;;;;;9.93;100.00;98224.44;5051392;28;20067;-88
2021/05/28 01:55:38;;;;;;;4.40;2.60;;;;;;;9.94;100.00;98245.19;5071789;28;20028;-85
2021/05/28 01:58:12;;;;;;;3.25;2.58;;;;;;;9.99;100.00;98234.22;5053263;28;20029;-87
2021/05/28 02:00:38;;;;;;;4.57;2.97;;;;;;;10.02;100.00;98231.72;5071561;28;20504;-85
2021/05/28 02:03:04;;;;;;;3.53;3.22;;;;;;;9.98;100.00;98243.50;5071907;28;20065;-85
2021/05/28 02:05:30;;;;;;;3.47;3.13;;;;;;;10.00;100.00;98249.50;5072193;28;20434;-85
2021/05/28 02:07:55;;;;;;;6.50;3.10;;;;;;;10.06;100.00;98256.56;5068900;28;20035;-84
2021/05/28 02:10:21;;;;;;;8.50;4.18;;;;;;;10.15;100.00;98255.69;5061038;28;20013;-83
2021/05/28 02:12:47;;;;;;;6.25;4.88;;;;;;;10.03;100.00;98257.13;5061538;28;20350;-84
2021/05/28 02:15:13;;;;;;;9.60;4.75;;;;;;;10.12;100.00;98263.63;5072689;28;20028;-82
2021/05/28 02:17:39;;;;;;;6.03;3.53;;;;;;;10.16;100.00;98259.25;5071256;28;20024;-84
2021/05/28 02:20:05;;;;;;;6.68;3.15;;;;;;;10.12;100.00;98248.03;5041655;28;20048;-85
2021/05/28 02:22:31;;;;;;;3.35;2.85;;;;;;;10.07;100.00;98261.75;5060100;28;20025;-83
2021/05/28 02:24:56;;;;;;;4.75;2.92;;;;;;;10.13;100.00;98259.78;5056504;28;20103;-83
2021/05/28 02:27:21;;;;;;;7.75;3.65;;;;;;;10.02;100.00;98245.38;5065262;28;20497;-82
2021/05/28 02:29:47;;;;;;;4.72;3.38;;;;;;;10.13;100.00;98243.41;5072436;28;20028;-81
2021/05/28 02:32:12;;;;;;;5.50;3.63;;;;;;;10.26;100.00;98237.31;5072425;28;20021;-86
2021/05/28 02:34:38;;;;;;;8.85;4.32;;;;;;;10.28;100.00;98245.22;5050703;28;20020;-82
2021/05/28 02:37:04;;;;;;;10.48;4.65;;;;;;;10.39;100.00;98247.59;5071649;28;20051;-85
2021/05/28 02:39:30;;;;;;;5.82;4.28;;;;;;;10.39;100.00;98247.59;5056753;28;20731;-86
2021/05/28 02:41:55;;;;;;;9.00;6.20;;;;;;;10.31;100.00;98237.25;5061636;28;20116;-87
2021/05/28 02:44:21;;;;;;;7.22;4.70;;;;;;;10.44;100.00;98255.75;5057842;28;20033;-90
2021/05/28 02:46:48;;;;;;;9.77;4.53;;;;;;;10.44;100.00;98249.44;5069655;28;20028;-89
2021/05/28 02:49:13;;;;;;;8.63;4.90;;;;;;;10.37;100.00;98252.53;5055438;28;20029;-85
2021/05/28 02:51:39;;;;;;;10.95;5.32;;;;;;;10.33;100.00;98256.94;5051314;28;20048;-81
2021/05/28 02:54:04;;;;;;;7.38;5.15;;;;;;;10.23;100.00;98264.41;5060150;28;20448;-88
2021/05/28 02:56:30;;;;;;;5.43;3.80;;;;;;;10.36;100.00;98272.78;5062561;28;20091;-89
2021/05/28 02:58:55;;;;;;;6.63;4.82;;;;;;;10.45;100.00;98259.31;5054983;28;20738;-90
2021/05/28 03:01:21;;;;;;;3.45;2.90;;;;;;;10.35;100.00;98262.94;5062507;28;20044;-87
2021/05/28 03:03:46;;;;;;;3.05;2.42;;;;;;;10.25;100.00;98263.00;5071221;28;20072;-85
2021/05/28 03:06:11;;;;;;;2.85;2.53;;;;;;;10.27;100.00;98271.75;5052412;28;20055;-85
2021/05/28 03:08:37;;;;;;;3.13;2.80;;;;;;;10.24;100.00;98287.91;5070169;28;20044;-85
2021/05/28 03:11:02;;;;;;;2.92;2.40;;;;;;;10.34;100.00;98277.69;5070713;28;20496;-88
2021/05/28 03:13:28;;;;;;;4.82;3.70;;;;;;;10.19;100.00;98280.56;5073865;28;20024;-87
2021/05/28 03:15:53;;;;;;;3.83;2.92;;;;;;;10.32;100.00;98279.91;5074300;28;20032;-85
2021/05/28 03:18:21;;;;;;;2.50;2.30;;;;;;;10.17;100.00;98289.06;5074786;28;20035;-87
2021/05/28 03:20:49;;;;;;;2.55;2.00;;;;;;;10.17;100.00;98291.78;5065550;28;20065;-81
2021/05/28 03:23:16;;;;;;;2.83;1.83;;;;;;;10.08;100.00;98289.91;5060800;28;20029;-85
2021/05/28 03:25:43;;;;;;;2.15;1.67;;;;;;;9.96;100.00;98289.44;5064660;28;20012;-86
2021/05/28 03:28:09;;;;;;;2.10;1.80;;;;;;;10.00;100.00;98293.22;5063351;28;20512;-87
2021/05/28 03:30:34;;;;;;;3.08;1.80;;;;;;;10.06;100.00;98301.13;5075273;28;20484;-86
2021/05/28 03:33:00;;;;;;;3.30;2.38;;;;;;;10.01;100.00;98303.06;5074099;28;20063;-87
2021/05/28 03:35:25;;;;;;;2.42;1.88;;;;;;;9.86;100.00;98279.41;5056561;28;20021;-85
2021/05/28 03:37:51;;;;;;;3.80;2.67;;;;;;;10.00;100.00;98294.03;5074216;28;20500;-87
2021/05/28 03:40:16;;;;;;;3.17;2.00;;;;;;;10.17;100.00;98301.91;5074075;28;20025;-84
2021/05/28 03:42:41;;;;;;;3.50;2.40;;;;;;;10.14;100.00;98289.63;5074354;28;20077;-85
2021/05/28 03:45:08;;;;;;;3.28;2.90;;;;;;;9.98;100.00;98290.78;5074571;28;20016;-85
2021/05/28 03:47:34;;;;;;;3.65;2.47;;;;;;;10.05;100.00;98295.94;5073840;28;20028;-83
2021/05/28 03:50:00;;;;;;;6.05;3.50;;;;;;;10.02;100.00;98296.50;5074548;28;20419;-84
2021/05/28 03:52:25;;;;;;;5.85;4.60;;;;;;;9.89;100.00;98294.41;5073226;28;20412;-84
2021/05/28 03:54:50;;;;;;;6.45;4.22;;;;;;;9.82;100.00;98302.09;5073899;28;20063;-84
2021/05/28 03:57:16;;;;;;;9.95;5.75;;;;;;;9.83;100.00;98301.00;5062571;28;20028;-84
2021/05/28 03:59:41;;;;;;;4.70;3.97;;;;;;;9.93;100.00;98317.34;5058182;28;20378;-85
2021/05/28 04:02:07;;;;;;;3.80;3.03;;;;;;;9.99;100.00;98297.09;5065190;28;20057;-85
2021/05/28 04:04:33;;;;;;;3.25;2.75;;;;;;;9.96;100.00;98328.50;5047158;28;20025;-80
2021/05/28 04:06:59;;;;;;;3.92;1.95;;;;;;;9.83;100.00;98317.38;5057340;28;20025;-80
2021/05/28 04:09:25;;;;;;;4.65;2.78;;;;;;;9.99;100.00;98319.72;5052971;28;20021;-83
2021/05/28 04:11:50;;;;;;;2.33;1.88;;;;;;;10.09;100.00;98314.22;5053519;28;20430;-82
2021/05/28 04:14:16;;;;;;;3.08;2.70;;;;;;;10.13;100.00;98315.31;5053526;28;20033;-84
2021/05/28 04:16:41;;;;;;;3.50;2.13;;;;;;;10.33;100.00;98317.09;5053219;28;20032;-83
2021/05/28 04:19:08;;;;;;;4.18;2.83;;;;;;;10.47;100.00;98312.59;5052793;28;20040;-85
2021/05/28 04:21:33;;;;;;;4.90;3.95;;;;;;;10.39;100.00;98324.16;5053642;28;20053;-82
2021/05/28 04:24:00;;;;;;;4.10;3.00;;;;;;;10.14;100.00;98327.06;5052101;28;20084;-86
2021/05/28 04:26:26;;;;;;;4.85;3.20;;;;;;;10.00;100.00;98320.56;5053778;28;20086;-90
2021/05/28 04:28:51;;;;;;;8.82;3.45;;;;;;;10.23;100.00;98319.91;5035631;28;20028;-85
2021/05/28 04:31:16;;;;;;;4.38;3.40;;;;;;;10.43;100.00;98321.69;5055145;28;20033;-83
2021/05/28 04:33:42;;;;;;;14.60;5.75;;;;;;;10.50;100.00;98328.44;5062341;28;20063;-88
2021/05/28 04:36:08;;;;;;;6.97;4.53;;;;;;;10.45;100.00;98317.56;5044734;28;20097;-85
2021/05/28 04:38:36;;;;;;;9.27;4.90;;;;;;;10.55;100.00;98322.94;5059854;28;20029;-86
2021/05/28 04:41:02;;;;;;;11.95;6.00;;;;;;;10.63;100.00;98324.22;5035421;28;20040;-89
2021/05/28 04:43:27;;;;;;;5.72;4.63;;;;;;;10.73;100.00;98329.63;5054305;28;20032;-86
2021/05/28 04:45:52;;;;;;;7.25;5.65;;;;;;;10.83;100.00;98325.97;5055549;28;20496;-83
2021/05/28 04:48:18;;;;;;;8.73;6.40;;;;;;;10.69;100.00;98334.03;5062397;28;20027;-79
2021/05/28 04:50:43;;;;;;;8.25;6.78;;;;;;;10.69;100.00;98325.81;5060482;28;20028;-76
2021/05/28 04:53:08;;;;;;;13.13;6.30;;;;;;;10.71;100.00;98329.09;5062133;28;20466;-78
2021/05/28 04:55:34;;;;;;;8.32;5.85;;;;;;;10.72;100.00;98349.88;5047270;28;20047;-79
2021/05/28 04:58:00;;;;;;;9.55;6.93;;;;;;;10.71;100.00;98357.25;5064460;28;20017;-74
2021/05/28 05:00:26;;;;;;;11.45;5.93;;;;;;;10.77;100.00;98350.63;5062309;28;20025;-75
2021/05/28 05:02:52;;;;;;;10.73;6.43;;;;;;;11.00;100.00;98340.03;5046359;28;20028;-89
2021/05/28 05:05:18;;;;;;;12.40;6.72;;;;;;;10.92;100.00;98343.41;5061563;28;20013;-89
2021/05/28 05:07:43;;;;;;;11.15;8.02;;;;;;;11.18;100.00;98347.53;5060650;28;20044;-81
2021/05/28 05:10:10;;;;;;;13.75;7.07;;;;;;;11.16;100.00;98344.25;5063492;28;20457;-76
2021/05/28 05:12:35;;;;;;;9.98;5.75;;;;;;;10.90;100.00;98323.75;5060054;28;20019;-80
2021/05/28 05:15:01;;;;;;;10.70;6.30;;;;;;;10.83;100.00;98328.72;5062486;28;20032;-89
2021/05/28 05:17:27;;;;;;;11.93;8.02;;;;;;;10.86;100.00;98334.44;5041479;28;20063;-83
2021/05/28 05:19:52;;;;;;;16.35;8.30;;;;;;;10.75;100.00;98341.09;5062631;28;20020;-82
2021/05/28 05:22:18;;;;;;;18.67;9.23;;;;;;;10.72;100.00;98345.22;5064445;28;20037;-79
2021/05/28 05:24:43;;;;;;;13.07;8.15;;;;;;;10.69;100.00;98334.03;5068963;28;20024;-86
2021/05/28 05:27:08;;;;;;;14.77;8.13;;;;;;;10.84;100.00;98339.38;5076778;28;20062;-82
2021/05/28 05:29:34;;;;;;;12.27;8.00;;;;;;;10.88;100.00;98340.44;5063791;28;20389;-75
2021/05/28 05:32:00;;;;;;;11.45;9.25;;;;;;;10.86;100.00;98328.16;5059351;28;20103;-76
2021/05/28 05:34:25;;;;;;;14.52;9.52;;;;;;;11.17;100.00;98343.16;5066481;28;20040;-74
2021/05/28 05:36:51;;;;;;;13.95;9.35;;;;;;;11.13;99.89;98350.31;5071655;28;20032;-76
2021/05/28 05:39:17;;;;;;;14.43;8.07;;;;;;;11.03;99.96;98350.41;5053907;28;20078;-75
2021/05/28 05:41:43;;;;;;;20.50;8.93;;;;;;;10.79;100.00;98349.53;5071794;28;20017;-76
2021/05/28 05:44:08;;;;;;;14.70;8.98;;;;;;;10.81;100.00;98347.34;5072940;28;20064;-74
2021/05/28 05:46:34;;;;;;;17.30;8.50;;;;;;;10.79;100.00;98331.22;5073202;28;20033;-76
2021/05/28 05:48:59;;;;;;;13.80;8.80;;;;;;;10.81;100.00;98334.47;5074127;28;20711;-77
2021/05/28 05:51:25;;;;;;;12.82;8.13;;;;;;;11.06;100.00;98336.13;5073807;28;20090;-78
2021/05/28 05:53:50;;;;;;;12.10;7.32;;;;;;;11.13;98.80;98345.66;5074986;28;20020;-82
2021/05/28 05:56:16;;;;;;;10.40;6.85;;;;;;;11.38;98.35;98341.00;5073519;28;20032;-75
2021/05/28 05:58:41;;;;;;;10.10;6.88;;;;;;;11.28;98.24;98325.50;5075120;28;20047;-76
2021/05/28 06:01:08;;;;;;;10.98;6.13;;;;;;;11.48;97.16;98344.47;5073068;28;20055;-75
2021/05/28 06:03:35;;;;;;;10.65;6.93;;;;;;;11.45;96.18;98339.56;5061248;28;20056;-87
2021/05/28 06:06:00;;;;;;;10.57;6.93;;;;;;;11.60;93.96;98342.13;5097343;28;20120;-93
2021/05/28 06:08:27;;;;;;;9.80;6.72;;;;;;;11.63;94.37;98343.47;5097979;28;20016;-88
2021/05/28 06:10:52;;;;;;;7.90;5.70;;;;;;;11.89;92.77;98344.00;5097793;28;20013;-85
2021/05/28 06:13:18;;;;;;;8.27;5.88;;;;;;;12.17;92.14;98354.03;5080789;28;20088;-79
2021/05/28 06:15:44;;;;;;;8.15;5.75;;;;;;;12.31;89.91;98350.25;5080919;28;20039;-81
2021/05/28 06:18:09;;;;;;;14.48;6.07;;;;;;;12.49;89.23;98350.56;5097990;28;20008;-87
2021/05/28 06:20:35;;;;;;;9.23;6.60;;;;;;;12.58;88.00;98351.50;5097269;28;20031;-77
2021/05/28 06:23:00;;;;;;;11.73;8.23;;;;;;;12.40;89.55;98357.81;5098000;28;20068;-79
2021/05/28 06:25:27;;;;;;;16.50;7.68;;;;;;;12.27;90.42;98356.63;5098096;28;20062;-82
2021/05/28 06:27:52;;;;;;;11.80;7.97;;;;;;;12.30;90.20;98353.31;5080741;28;20066;-77
2021/05/28 06:30:18;;;;;;;13.05;8.68;;;;;;;12.19;90.82;98354.53;5092506;28;20037;-90
2021/05/28 06:32:44;;;;;;;12.88;8.57;;;;;;;12.33;90.45;98352.72;5077186;28;20009;-90
2021/05/28 06:35:09;;;;;;;14.63;8.63;;;;;;;12.38;89.13;98352.63;5077773;28;20116;-77
2021/05/28 06:37:35;;;;;;;10.88;8.00;;;;;;;12.45;87.28;98355.81;5054247;28;20033;-80
2021/05/28 06:40:00;;;;;;;11.50;9.10;;;;;;;12.65;86.23;98352.78;5070405;28;20035;-79
2021/05/28 06:42:26;;;;;;;9.73;7.85;;;;;;;12.93;86.99;98336.38;5069625;28;20017;-77
2021/05/28 06:44:51;;;;;;;14.40;10.93;;;;;;;12.84;86.53;98345.28;5071061;28;20042;-84
2021/05/28 06:47:17;;;;;;;13.32;9.85;;;;;;;13.19;85.03;98343.88;5047525;28;20115;-76
2021/05/28 06:49:43;;;;;;;12.38;10.80;;;;;;;13.25;84.89;98350.13;5062895;28;20033;-79
2021/05/28 06:52:09;;;;;;;12.88;10.27;;;;;;;12.90;84.36;98344.09;5066530;28;20025;-77
2021/05/28 06:54:37;;;;;;;14.00;11.88;;;;;;;12.94;85.36;98351.75;5064587;28;20025;-77
2021/05/28 06:57:03;;;;;;;17.10;12.13;;;;;;;13.20;83.73;98347.44;5046395;28;20031;-75
2021/05/28 06:59:28;;;;;;;15.30;10.77;;;;;;;13.74;81.69;98347.50;5045243;28;20035;-76
2021/05/28 07:01:54;;;;;;;12.73;9.65;;;;;;;14.06;80.67;98356.75;5066634;28;20044;-80
2021/05/28 07:04:20;;;;;;;14.18;10.55;;;;;;;13.98;79.04;98358.28;5083297;28;20040;-75
2021/05/28 07:06:45;;;;;;;13.27;10.35;;;;;;;13.97;79.72;98362.13;5083717;28;20466;-76
2021/05/28 07:09:11;;;;;;;13.65;9.27;;;;;;;13.68;78.89;98345.97;5083549;28;20067;-75
2021/05/28 07:11:37;;;;;;;13.95;9.48;;;;;;;13.76;79.72;98359.00;5082699;28;20012;-74
2021/05/28 07:14:03;;;;;;;18.13;9.98;;;;;;;13.89;79.15;98355.44;5082866;28;20112;-75
2021/05/28 07:16:28;;;;;;;13.48;9.63;;;;;;;14.08;78.64;98355.31;5083530;28;20076;-74
2021/05/28 07:18:54;;;;;;;11.30;8.68;;;;;;;14.58;76.69;98358.88;5082475;28;20496;-75
2021/05/28 07:21:20;;;;;;;11.50;8.80;;;;;;;14.71;75.54;98363.53;5083023;28;20028;-76
2021/05/28 07:23:45;;;;;;;11.45;9.63;;;;;;;14.84;75.34;98357.16;5083299;28;20114;-74
2021/05/28 07:26:10;;;;;;;11.85;8.77;;;;;;;15.08;72.95;98364.25;5083090;28;20016;-76
2021/05/28 07:28:39;;;;;;;13.15;9.30;;;;;;;14.93;73.26;98359.97;5084818;28;20037;-76
2021/05/28 07:31:04;;;;;;;10.15;8.15;;;;;;;14.98;72.54;98355.13;5082727;28;20020;-75
2021/05/28 07:33:30;;;;;;;13.13;7.90;;;;;;;15.39;72.23;98354.06;5085883;28;20032;-89
2021/05/28 07:35:55;;;;;;;10.77;7.85;;;;;;;15.55;71.04;98349.81;5082541;28;20384;-84
2021/05/28 07:38:21;;;;;;;18.13;8.95;;;;;;;15.51;71.74;98357.91;5082106;28;20021;-76
2021/05/28 07:40:46;;;;;;;14.63;8.98;;;;;;;15.46;71.87;98366.28;5081911;28;20395;-77
2021/05/28 07:43:11;;;;;;;12.73;9.52;;;;;;;15.39;73.11;98363.16;5084008;28;20481;-90
2021/05/28 07:45:38;;;;;;;10.07;7.65;;;;;;;15.83;70.27;98356.72;5086655;28;20078;-84
2021/05/28 07:48:05;;;;;;;11.40;7.22;;;;;;;16.30;69.95;98359.75;5086985;28;20024;-88
2021/05/28 07:50:44;;;;;;;10.25;7.20;;;;;;;16.46;67.75;98353.44;5087931;28;20552;-81
2021/05/28 07:53:15;;;;;;;8.73;6.85;;;;;;;16.68;67.12;98362.75;5083615;28;20040;-82
2021/05/28 07:55:40;;;;;;;13.27;6.40;;;;;;;16.58;66.33;98350.06;5081383;28;20027;-79
2021/05/28 07:58:06;;;;;;;9.23;6.30;;;;;;;16.67;65.46;98352.81;5083823;28;20404;-77
2021/05/28 08:00:31;;;;;;;6.22;5.25;;;;;;;16.93;63.02;98357.22;5082450;28;20571;-74
2021/05/28 08:02:58;;;;;;;7.03;5.28;;;;;;;17.16;61.71;98344.03;5064089;28;20045;-75
2021/05/28 08:05:24;;;;;;;8.32;5.18;;;;;;;18.15;59.85;98348.19;5061572;28;20047;-86
2021/05/28 08:07:49;;;;;;;6.82;5.30;;;;;;;18.88;56.54;98354.19;5062519;28;20056;-80
2021/05/28 08:10:15;;;;;;;6.05;3.88;;;;;;;19.94;51.91;98356.00;5062619;28;20103;-77
2021/05/28 08:12:40;;;;;;;5.57;4.50;;;;;;;19.73;51.96;98344.19;5062120;28;20431;-79
2021/05/28 08:15:07;;;;;;;4.63;3.75;;;;;;;20.44;50.18;98340.94;5060936;28;20123;-79
2021/05/28 08:17:32;;;;;;;3.97;3.58;;;;;;;21.97;47.28;98346.84;5059899;28;20724;-80
2021/05/28 08:19:57;;;;;;;6.03;3.58;;;;;;;21.50;47.05;98335.66;5066627;28;20055;-78
2021/05/28 08:22:23;;;;;;;4.22;3.38;;;;;;;22.34;45.22;98329.44;5073229;28;20017;-77
2021/05/28 08:24:49;;;;;;;7.95;3.20;;;;;;;22.89;43.75;98335.88;5073913;28;20486;-79
2021/05/28 08:27:16;;;;;;;2.30;2.10;;;;;;;23.76;41.16;98335.19;5072949;28;20024;-78
2021/05/28 08:29:42;;;;;;;4.20;2.28;;;;;;;23.83;41.00;98340.91;5073412;28;20031;-75
2021/05/28 08:32:07;;;;;;;6.22;2.10;;;;;;;22.86;43.24;98329.06;5080772;28;20024;-80
2021/05/28 08:34:32;;;;;;;2.92;2.38;;;;;;;22.37;43.64;98325.94;5074410;28;20032;-79
2021/05/28 08:36:58;;;;;;;5.55;2.47;;;;;;;23.39;41.83;98337.66;5065019;28;20036;-78
2021/05/28 08:39:23;;;;;;;1.67;1.50;;;;;;;23.34;41.79;98335.97;5072926;28;20031;-77
2021/05/28 08:41:49;;;;;;;1.58;1.48;;;;;;;22.16;44.32;98335.78;5072063;28;20032;-78
2021/05/28 08:44:22;;;;;;;3.42;1.98;;;;;;;23.03;42.36;98336.16;5072488;28;20032;-78
2021/05/28 08:46:49;;;;;;;2.78;2.00;;;;;;;23.45;42.04;98345.41;5072104;28;20107;-78
2021/05/28 08:49:14;;;;;;;2.30;1.75;;;;;;;23.52;41.45;98333.56;5072364;28;20025;-79
2021/05/28 08:51:39;;;;;;;2.33;1.80;;;;;;;23.40;42.39;98340.09;5071513;28;20032;-79
2021/05/28 08:54:05;;;;;;;3.78;1.80;;;;;;;23.31;40.87;98336.72;5072477;28;20397;-78
2021/05/28 08:56:33;;;;;;;3.83;1.65;;;;;;;23.00;42.19;98320.13;5071813;28;20075;-77
2021/05/28 08:58:59;;;;;;;1.95;1.30;;;;;;;23.03;41.67;98332.53;5053111;28;20020;-76
2021/05/28 09:01:24;;;;;;;1.20;1.10;;;;;;;23.10;41.47;98338.28;5073307;28;20061;-81
2021/05/28 09:04:01;;;;;;;1.40;1.00;;;;;;;23.97;39.31;98341.13;5053904;28;20115;-78
2021/05/28 09:06:46;;;;;;;1.58;1.48;;;;;;;24.60;37.13;98326.53;5054089;28;20036;-80
2021/05/28 09:09:15;;;;;;;1.42;1.33;;;;;;;23.55;38.62;98326.41;5037767;28;20033;-78
2021/05/28 09:11:57;;;;;;;6.03;1.75;;;;;;;23.98;37.89;98321.19;5032937;28;20025;-78
2021/05/28 09:14:43;;;;;;;1.63;1.27;;;;;;;24.55;37.19;98315.69;5033302;28;20504;-78
2021/05/28 09:17:10;;;;;;;;;;;;;;;24.34;37.88;98332.97;5033642;28;20108;-77
2021/05/28 09:19:37;;;;;;;2.28;1.70;;;;;;;23.46;39.26;98330.25;5051552;28;19919;-78
2021/05/28 09:22:04;;;;;;;1.10;1.00;;;;;;;23.76;39.01;98319.22;5051624;28;20025;-78
2021/05/28 09:24:35;;;;;;;1.33;0.95;;;;;;;24.86;36.56;98315.34;5051296;28;20116;-79
2021/05/28 09:27:19;;;;;;;1.85;1.27;;;;;;;24.88;36.68;98305.34;5051092;28;20033;-76
2021/05/28 09:30:05;;;;;;;5.22;1.83;;;;;;;25.18;36.12;98310.94;5051960;28;20021;-74
2021/05/28 09:32:32;;;;;;;0.90;0.90;;;;;;;25.38;35.30;98306.72;5034366;28;20025;-76
2021/05/28 09:34:57;;;;;;;1.80;1.35;;;;;;;25.38;35.63;98312.34;5051278;28;20033;-77
2021/05/28 09:37:47;;;;;;;2.65;1.00;;;;;;;25.72;35.22;98306.72;5033210;28;20032;-76
2021/05/28 09:40:22;;;;;;;1.40;0.93;;;;;;;26.68;33.48;98297.00;5040516;28;20037;-79
2021/05/28 09:42:48;;;;;;;1.85;1.02;;;;;;;26.50;33.92;98302.53;5050572;28;20013;-78
2021/05/28 09:45:21;;;;;;;3.10;1.10;;;;;;;27.72;31.65;98294.16;5032632;28;20032;-77
2021/05/28 09:47:46;;;;;;;1.45;0.80;;;;;;;27.68;31.65;98288.53;5032759;28;20481;-77
2021/05/28 09:50:15;;;;;;;0.88;0.85;;;;;;;26.38;33.33;98289.59;5032191;28;20033;-76
2021/05/28 09:52:40;;;;;;;0.85;0.57;;;;;;;26.75;29.70;98291.44;5015498;28;20398;-76
2021/05/28 09:55:09;;;;;;;1.88;0.65;;;;;;;26.14;32.08;98295.03;5032931;28;20040;-78
2021/05/28 09:57:40;;;;;;;0.95;0.65;;;;;;;25.11;32.29;98293.22;5051238;28;20033;-74
2021/05/28 10:00:21;;;;;;;1.27;0.70;;;;;;;26.14;30.48;98295.03;5032845;28;20047;-78
2021/05/28 10:02:47;;;;;;;2.38;0.50;;;;;;;24.74;31.23;98274.38;5050575;28;20053;-78
2021/05/28 10:05:24;;;;;;;0.85;0.57;;;;;;;24.92;30.59;98285.81;5050017;28;20041;-79
2021/05/28 10:07:50;;;;;;;0.55;0.55;;;;;;;24.78;31.35;98283.59;5050633;28;20112;-75
2021/05/28 10:10:17;;;;;;;1.00;0.57;;;;;;;25.62;30.91;98285.00;5049762;28;20032;-79
2021/05/28 10:12:45;;;;;;;1.13;0.30;;;;;;;26.52;28.74;98278.47;5054912;28;21748;-79
2021/05/28 10:15:12;;;;;;;0.52;0.38;;;;;;;26.54;29.11;98295.72;5055971;28;20039;-79
2021/05/28 10:17:38;;;;;;;0.45;0.40;;;;;;;26.31;29.39;98264.34;5073139;28;20127;-78
2021/05/28 10:20:06;;;;;;;1.50;0.60;;;;;;;27.51;28.23;98276.06;5072070;28;20114;-78
2021/05/28 10:22:31;;;;;;;2.55;0.63;;;;;;;27.46;28.40;98259.59;5051766;28;20024;-79
2021/05/28 10:24:56;;;;;;;0.63;0.50;;;;;;;26.77;29.34;98267.38;5052472;28;20056;-76
2021/05/28 10:27:25;;;;;;;0.52;0.43;;;;;;;24.41;33.03;98266.75;5050601;28;20035;-75
2021/05/28 10:29:52;;;;;;;1.27;0.70;;;;;;;23.46;35.14;98260.41;5056580;28;20508;-79
2021/05/28 10:32:18;;;;;;;1.20;0.57;;;;;;;22.49;36.73;98243.34;5042789;28;20174;-79
2021/05/28 10:35:04;;;;;;;0.82;0.60;;;;;;;22.10;37.41;98253.63;5069236;28;20137;-78
2021/05/28 10:37:31;;;;;;;0.60;0.40;;;;;;;22.10;37.57;98229.34;5069880;28;20496;-77
2021/05/28 10:39:56;;;;;;;0.20;0.20;;;;;;;21.07;32.64;98233.50;5069766;28;20460;-79
2021/05/28 10:42:22;;;;;;;0.40;0.20;;;;;;;20.63;33.04;98235.47;5069268;28;20107;-75
2021/05/28 10:44:48;;;;;;;0.22;0.22;;;;;;;20.03;35.47;98234.47;5046123;28;20039;-76
2021/05/28 10:47:13;;;;;;;0.40;0.40;;;;;;;20.11;38.14;98241.84;5051898;28;20041;-84
2021/05/28 10:49:42;;;;;;;2.30;0.40;;;;;;;21.20;36.63;98243.44;5049645;28;20075;-76
2021/05/28 10:52:09;;;;;;;1.27;0.40;;;;;;;21.46;35.82;98229.00;5049853;28;20033;-78
2021/05/28 10:54:36;;;;;;;0.40;0.40;;;;;;;21.37;35.73;98220.81;5049814;28;20367;-80
2021/05/28 10:57:23;;;;;;;0.50;0.30;;;;;;;21.88;35.06;98236.41;5049435;28;20021;-79
2021/05/28 10:59:51;;;;;;;1.27;0.40;;;;;;;21.56;35.92;98222.84;5049516;28;20025;-78
2021/05/28 11:02:47;;;;;;;0.40;0.30;;;;;;;21.09;33.78;98222.84;5061422;28;20044;-75
2021/05/28 11:05:13;;;;;;;0.35;0.30;;;;;;;21.11;35.90;98229.69;5059423;28;20424;-78
2021/05/28 11:07:43;;;;;;;0.75;0.52;;;;;;;21.15;37.00;98202.75;5056403;28;20489;-77
2021/05/28 11:10:24;;;;;;;0.03;0.03;;;;;;;21.45;35.30;98230.16;5058175;28;20782;-75
2021/05/28 11:12:51;;;;;;;0.22;0.22;;;;;;;20.62;35.87;98229.09;5056839;28;20028;-74
2021/05/28 11:15:23;;;;;;;0.77;0.52;;;;;;;20.56;35.97;98218.59;5066991;28;20087;-75
2021/05/28 11:17:56;;;;;;;0.20;0.20;;;;;;;20.57;35.47;98220.22;5060199;28;20032;-78
2021/05/28 11:20:27;;;;;;;0.85;0.38;;;;;;;21.21;34.85;98218.03;5057046;28;20068;-76
2021/05/28 11:22:53;;;;;;;0.55;0.20;;;;;;;21.42;33.52;98206.63;5057404;28;20036;-84
2021/05/28 11:25:21;;;;;;;1.75;0.20;;;;;;;20.54;34.38;98209.81;5060377;28;20028;-81